sensor_id;sensor_type;location;lat;lon;timestamp;temperature;humidity
680;DHT22;322;48.846;9.230;2023-04-06T00:00:13;-0.20;78.70
680;DHT22;322;48.846;9.230;2023-04-06T00:02:41;-0.10;79.60
680;DHT22;322;48.846;9.230;2023-04-06T00:05:08;-0.20;80.20
680;DHT22;322;48.846;9.230;2023-04-06T00:07:35;-0.30;81.00
680;DHT22;322;48.846;9.230;2023-04-06T00:10:04;-0.30;82.10
680;DHT22;322;48.846;9.230;2023-04-06T00:12:31;-0.30;83.40
680;DHT22;322;48.846;9.230;2023-04-06T00:14:58;-0.40;83.80
680;DHT22;322;48.846;9.230;2023-04-06T00:17:27;-0.40;85.70
680;DHT22;322;48.846;9.230;2023-04-06T00:19:53;-0.40;86.80
680;DHT22;322;48.846;9.230;2023-04-06T00:22:20;-0.30;88.00
680;DHT22;322;48.846;9.230;2023-04-06T00:24:47;-0.40;86.90
680;DHT22;322;48.846;9.230;2023-04-06T00:27:16;-0.40;86.80
680;DHT22;322;48.846;9.230;2023-04-06T00:29:43;-0.40;85.60
680;DHT22;322;48.846;9.230;2023-04-06T00:32:10;-0.30;85.60
680;DHT22;322;48.846;9.230;2023-04-06T00:34:37;-0.20;85.60
680;DHT22;322;48.846;9.230;2023-04-06T00:37:04;-0.20;84.30
680;DHT22;322;48.846;9.230;2023-04-06T00:39:31;-0.30;83.50
680;DHT22;322;48.846;9.230;2023-04-06T00:41:58;-0.40;83.30
680;DHT22;322;48.846;9.230;2023-04-06T00:44:27;-0.50;83.90
680;DHT22;322;48.846;9.230;2023-04-06T00:46:53;-0.40;84.80
680;DHT22;322;48.846;9.230;2023-04-06T00:49:20;-0.40;84.40
680;DHT22;322;48.846;9.230;2023-04-06T00:51:47;-0.40;83.30
680;DHT22;322;48.846;9.230;2023-04-06T00:54:14;-0.30;82.00
680;DHT22;322;48.846;9.230;2023-04-06T00:56:41;-0.30;81.50
680;DHT22;322;48.846;9.230;2023-04-06T00:59:09;-0.30;81.30
680;DHT22;322;48.846;9.230;2023-04-06T01:01:37;-0.30;82.20
680;DHT22;322;48.846;9.230;2023-04-06T01:04:04;-0.30;83.30
680;DHT22;322;48.846;9.230;2023-04-06T01:06:31;-0.30;84.50
680;DHT22;322;48.846;9.230;2023-04-06T01:08:58;-0.50;83.50
680;DHT22;322;48.846;9.230;2023-04-06T01:11:25;-0.50;82.80
680;DHT22;322;48.846;9.230;2023-04-06T01:13:52;-0.60;82.80
680;DHT22;322;48.846;9.230;2023-04-06T01:16:20;-0.60;82.50
680;DHT22;322;48.846;9.230;2023-04-06T01:18:48;-0.60;84.30
680;DHT22;322;48.846;9.230;2023-04-06T01:21:15;-0.60;84.70
680;DHT22;322;48.846;9.230;2023-04-06T01:23:44;-0.70;85.00
680;DHT22;322;48.846;9.230;2023-04-06T01:26:12;-0.70;84.80
680;DHT22;322;48.846;9.230;2023-04-06T01:28:42;-0.70;83.90
680;DHT22;322;48.846;9.230;2023-04-06T01:31:10;-0.80;83.90
680;DHT22;322;48.846;9.230;2023-04-06T01:33:37;-0.80;86.00
680;DHT22;322;48.846;9.230;2023-04-06T01:36:04;-0.80;85.80
680;DHT22;322;48.846;9.230;2023-04-06T01:38:31;-0.80;84.90
680;DHT22;322;48.846;9.230;2023-04-06T01:41:00;-0.80;84.20
680;DHT22;322;48.846;9.230;2023-04-06T01:43:27;-0.80;84.20
680;DHT22;322;48.846;9.230;2023-04-06T01:45:53;-0.70;84.00
680;DHT22;322;48.846;9.230;2023-04-06T01:48:20;-0.80;83.70
680;DHT22;322;48.846;9.230;2023-04-06T01:50:47;-0.90;84.20
680;DHT22;322;48.846;9.230;2023-04-06T01:53:14;-0.90;85.10
680;DHT22;322;48.846;9.230;2023-04-06T01:55:41;-1.00;85.10
680;DHT22;322;48.846;9.230;2023-04-06T01:58:10;-1.10;85.60
680;DHT22;322;48.846;9.230;2023-04-06T02:00:36;-1.20;86.10
680;DHT22;322;48.846;9.230;2023-04-06T02:03:03;-1.20;86.40
680;DHT22;322;48.846;9.230;2023-04-06T02:05:32;-1.20;86.70
680;DHT22;322;48.846;9.230;2023-04-06T02:08:03;-1.20;86.90
680;DHT22;322;48.846;9.230;2023-04-06T02:10:30;-1.20;87.50
680;DHT22;322;48.846;9.230;2023-04-06T02:12:57;-1.00;87.60
680;DHT22;322;48.846;9.230;2023-04-06T02:15:25;-0.90;87.30
680;DHT22;322;48.846;9.230;2023-04-06T02:17:52;-1.00;86.10
680;DHT22;322;48.846;9.230;2023-04-06T02:20:19;-1.00;85.90
680;DHT22;322;48.846;9.230;2023-04-06T02:22:46;-1.10;85.50
680;DHT22;322;48.846;9.230;2023-04-06T02:25:13;-1.30;86.10
680;DHT22;322;48.846;9.230;2023-04-06T02:27:40;-1.30;87.60
680;DHT22;322;48.846;9.230;2023-04-06T02:30:08;-1.30;88.00
680;DHT22;322;48.846;9.230;2023-04-06T02:32:36;-1.30;88.00
680;DHT22;322;48.846;9.230;2023-04-06T02:35:04;-1.30;88.40
680;DHT22;322;48.846;9.230;2023-04-06T02:37:31;-1.30;88.60
680;DHT22;322;48.846;9.230;2023-04-06T02:39:58;-1.40;88.60
680;DHT22;322;48.846;9.230;2023-04-06T02:42:25;-1.40;89.20
680;DHT22;322;48.846;9.230;2023-04-06T02:44:52;-1.20;89.40
680;DHT22;322;48.846;9.230;2023-04-06T02:47:18;-1.20;88.90
680;DHT22;322;48.846;9.230;2023-04-06T02:49:47;-1.20;88.00
680;DHT22;322;48.846;9.230;2023-04-06T02:52:13;-1.30;88.20
680;DHT22;322;48.846;9.230;2023-04-06T02:54:40;-1.30;88.60
680;DHT22;322;48.846;9.230;2023-04-06T02:57:08;-1.20;89.00
680;DHT22;322;48.846;9.230;2023-04-06T02:59:34;-1.20;88.80
680;DHT22;322;48.846;9.230;2023-04-06T03:02:01;-1.40;87.80
680;DHT22;322;48.846;9.230;2023-04-06T03:04:28;-1.50;89.10
680;DHT22;322;48.846;9.230;2023-04-06T03:06:56;-1.50;90.00
680;DHT22;322;48.846;9.230;2023-04-06T03:09:23;-1.40;90.10
680;DHT22;322;48.846;9.230;2023-04-06T03:11:50;-1.40;89.30
680;DHT22;322;48.846;9.230;2023-04-06T03:14:17;-1.50;89.10
680;DHT22;322;48.846;9.230;2023-04-06T03:16:47;-1.50;89.90
680;DHT22;322;48.846;9.230;2023-04-06T03:19:14;-1.50;90.10
680;DHT22;322;48.846;9.230;2023-04-06T03:21:41;-1.40;90.20
680;DHT22;322;48.846;9.230;2023-04-06T03:24:09;-1.40;88.90
680;DHT22;322;48.846;9.230;2023-04-06T03:26:36;-1.40;88.00
680;DHT22;322;48.846;9.230;2023-04-06T03:29:03;-1.50;89.30
680;DHT22;322;48.846;9.230;2023-04-06T03:31:30;-1.50;90.00
680;DHT22;322;48.846;9.230;2023-04-06T03:33:56;-1.40;90.10
680;DHT22;322;48.846;9.230;2023-04-06T03:36:24;-1.40;90.10
680;DHT22;322;48.846;9.230;2023-04-06T03:38:52;-1.60;90.00
680;DHT22;322;48.846;9.230;2023-04-06T03:41:20;-1.70;90.40
680;DHT22;322;48.846;9.230;2023-04-06T03:43:47;-1.70;90.50
680;DHT22;322;48.846;9.230;2023-04-06T03:46:15;-1.70;90.50
680;DHT22;322;48.846;9.230;2023-04-06T03:48:42;-1.50;90.70
680;DHT22;322;48.846;9.230;2023-04-06T03:51:09;-1.40;90.50
680;DHT22;322;48.846;9.230;2023-04-06T03:53:36;-1.50;90.10
680;DHT22;322;48.846;9.230;2023-04-06T03:56:04;-1.50;89.50
680;DHT22;322;48.846;9.230;2023-04-06T03:58:32;-1.40;88.60
680;DHT22;322;48.846;9.230;2023-04-06T04:00:59;-1.50;88.70
680;DHT22;322;48.846;9.230;2023-04-06T04:03:26;-1.60;90.20
680;DHT22;322;48.846;9.230;2023-04-06T04:05:53;-1.30;90.70
680;DHT22;322;48.846;9.230;2023-04-06T04:08:20;-1.40;90.30
680;DHT22;322;48.846;9.230;2023-04-06T04:10:47;-1.40;90.00
680;DHT22;322;48.846;9.230;2023-04-06T04:13:14;-1.60;89.60
680;DHT22;322;48.846;9.230;2023-04-06T04:15:42;-1.70;90.20
680;DHT22;322;48.846;9.230;2023-04-06T04:18:09;-1.60;90.40
680;DHT22;322;48.846;9.230;2023-04-06T04:20:36;-1.50;90.60
680;DHT22;322;48.846;9.230;2023-04-06T04:23:02;-1.60;90.20
680;DHT22;322;48.846;9.230;2023-04-06T04:25:29;-1.60;90.30
680;DHT22;322;48.846;9.230;2023-04-06T04:27:56;-1.50;90.20
680;DHT22;322;48.846;9.230;2023-04-06T04:30:23;-1.60;90.20
680;DHT22;322;48.846;9.230;2023-04-06T04:32:51;-1.70;89.40
680;DHT22;322;48.846;9.230;2023-04-06T04:35:18;-1.60;89.40
680;DHT22;322;48.846;9.230;2023-04-06T04:37:45;-1.70;89.30
680;DHT22;322;48.846;9.230;2023-04-06T04:40:12;-1.80;90.40
680;DHT22;322;48.846;9.230;2023-04-06T04:42:39;-1.60;90.50
680;DHT22;322;48.846;9.230;2023-04-06T04:45:06;-1.60;90.40
680;DHT22;322;48.846;9.230;2023-04-06T04:47:33;-1.70;90.00
680;DHT22;322;48.846;9.230;2023-04-06T04:50:02;-1.90;90.10
680;DHT22;322;48.846;9.230;2023-04-06T04:52:28;-2.00;90.80
680;DHT22;322;48.846;9.230;2023-04-06T04:54:55;-1.90;90.80
680;DHT22;322;48.846;9.230;2023-04-06T04:57:22;-1.90;90.80
680;DHT22;322;48.846;9.230;2023-04-06T04:59:49;-1.70;90.70
680;DHT22;322;48.846;9.230;2023-04-06T05:02:16;-1.60;90.80
680;DHT22;322;48.846;9.230;2023-04-06T05:04:43;-1.80;90.50
680;DHT22;322;48.846;9.230;2023-04-06T05:07:11;-1.90;90.40
680;DHT22;322;48.846;9.230;2023-04-06T05:09:38;-1.80;90.50
680;DHT22;322;48.846;9.230;2023-04-06T05:12:05;-1.90;90.60
680;DHT22;322;48.846;9.230;2023-04-06T05:14:32;-1.90;90.90
680;DHT22;322;48.846;9.230;2023-04-06T05:16:59;-1.90;91.20
680;DHT22;322;48.846;9.230;2023-04-06T05:19:26;-1.70;91.70
680;DHT22;322;48.846;9.230;2023-04-06T05:21:53;-1.60;91.50
680;DHT22;322;48.846;9.230;2023-04-06T05:24:21;-1.40;91.40
680;DHT22;322;48.846;9.230;2023-04-06T05:26:49;-1.40;91.30
680;DHT22;322;48.846;9.230;2023-04-06T05:29:16;-1.40;90.90
680;DHT22;322;48.846;9.230;2023-04-06T05:31:43;-1.40;90.70
680;DHT22;322;48.846;9.230;2023-04-06T05:34:10;-1.30;90.70
680;DHT22;322;48.846;9.230;2023-04-06T05:36:38;-1.30;90.10
680;DHT22;322;48.846;9.230;2023-04-06T05:39:05;-1.30;90.20
680;DHT22;322;48.846;9.230;2023-04-06T05:41:34;-1.00;90.30
680;DHT22;322;48.846;9.230;2023-04-06T05:44:01;-0.90;89.10
680;DHT22;322;48.846;9.230;2023-04-06T05:46:27;-0.80;89.70
680;DHT22;322;48.846;9.230;2023-04-06T05:48:54;-0.70;88.80
680;DHT22;322;48.846;9.230;2023-04-06T05:51:21;-0.70;88.30
680;DHT22;322;48.846;9.230;2023-04-06T05:53:48;-0.70;87.80
680;DHT22;322;48.846;9.230;2023-04-06T05:56:15;-0.40;87.50
680;DHT22;322;48.846;9.230;2023-04-06T05:58:43;-0.40;87.00
680;DHT22;322;48.846;9.230;2023-04-06T06:01:10;-0.40;87.20
680;DHT22;322;48.846;9.230;2023-04-06T06:03:37;-0.30;87.50
680;DHT22;322;48.846;9.230;2023-04-06T06:06:04;-0.20;85.90
680;DHT22;322;48.846;9.230;2023-04-06T06:08:31;0.10;85.70
680;DHT22;322;48.846;9.230;2023-04-06T06:10:58;0.10;84.40
680;DHT22;322;48.846;9.230;2023-04-06T06:13:25;0.30;84.40
680;DHT22;322;48.846;9.230;2023-04-06T06:15:53;0.50;83.20
680;DHT22;322;48.846;9.230;2023-04-06T06:18:20;0.70;82.80
680;DHT22;322;48.846;9.230;2023-04-06T06:20:47;0.80;81.30
680;DHT22;322;48.846;9.230;2023-04-06T06:23:14;0.80;80.70
680;DHT22;322;48.846;9.230;2023-04-06T06:25:41;0.90;80.10
680;DHT22;322;48.846;9.230;2023-04-06T06:28:08;1.00;80.20
680;DHT22;322;48.846;9.230;2023-04-06T06:30:35;1.10;80.20
680;DHT22;322;48.846;9.230;2023-04-06T06:33:03;1.20;80.30
680;DHT22;322;48.846;9.230;2023-04-06T06:35:30;1.30;80.10
680;DHT22;322;48.846;9.230;2023-04-06T06:37:57;1.30;77.80
680;DHT22;322;48.846;9.230;2023-04-06T06:40:23;1.30;79.30
680;DHT22;322;48.846;9.230;2023-04-06T06:42:51;1.50;80.10
680;DHT22;322;48.846;9.230;2023-04-06T06:45:18;1.50;78.10
680;DHT22;322;48.846;9.230;2023-04-06T06:47:45;1.70;78.20
680;DHT22;322;48.846;9.230;2023-04-06T06:50:14;1.90;76.90
680;DHT22;322;48.846;9.230;2023-04-06T06:52:41;2.00;76.20
680;DHT22;322;48.846;9.230;2023-04-06T06:55:09;2.20;77.60
680;DHT22;322;48.846;9.230;2023-04-06T06:57:39;2.30;74.70
680;DHT22;322;48.846;9.230;2023-04-06T07:00:08;2.40;74.40
680;DHT22;322;48.846;9.230;2023-04-06T07:02:36;2.60;72.90
680;DHT22;322;48.846;9.230;2023-04-06T07:05:03;2.70;71.50
680;DHT22;322;48.846;9.230;2023-04-06T07:07:34;2.80;70.40
680;DHT22;322;48.846;9.230;2023-04-06T07:10:01;2.80;70.00
680;DHT22;322;48.846;9.230;2023-04-06T07:12:28;2.90;69.60
680;DHT22;322;48.846;9.230;2023-04-06T07:14:55;3.00;69.70
680;DHT22;322;48.846;9.230;2023-04-06T07:17:22;3.10;69.20
680;DHT22;322;48.846;9.230;2023-04-06T07:19:48;3.30;69.10
680;DHT22;322;48.846;9.230;2023-04-06T07:22:15;3.40;66.70
680;DHT22;322;48.846;9.230;2023-04-06T07:24:44;3.70;67.20
680;DHT22;322;48.846;9.230;2023-04-06T07:27:11;3.80;65.50
680;DHT22;322;48.846;9.230;2023-04-06T07:29:37;3.90;65.50
680;DHT22;322;48.846;9.230;2023-04-06T07:32:04;4.00;65.50
680;DHT22;322;48.846;9.230;2023-04-06T07:34:31;4.10;63.30
680;DHT22;322;48.846;9.230;2023-04-06T07:36:58;4.20;62.60
680;DHT22;322;48.846;9.230;2023-04-06T07:39:26;4.40;61.90
680;DHT22;322;48.846;9.230;2023-04-06T07:41:54;4.50;61.20
680;DHT22;322;48.846;9.230;2023-04-06T07:44:21;4.70;60.00
680;DHT22;322;48.846;9.230;2023-04-06T07:46:48;4.80;59.90
680;DHT22;322;48.846;9.230;2023-04-06T07:49:15;4.90;59.90
680;DHT22;322;48.846;9.230;2023-04-06T07:51:42;5.10;61.40
680;DHT22;322;48.846;9.230;2023-04-06T07:54:09;5.10;59.10
680;DHT22;322;48.846;9.230;2023-04-06T07:56:36;5.40;59.10
680;DHT22;322;48.846;9.230;2023-04-06T07:59:04;5.50;58.50
680;DHT22;322;48.846;9.230;2023-04-06T08:01:31;5.70;58.90
680;DHT22;322;48.846;9.230;2023-04-06T08:03:58;5.90;58.40
680;DHT22;322;48.846;9.230;2023-04-06T08:06:27;6.10;56.50
680;DHT22;322;48.846;9.230;2023-04-06T08:08:54;6.20;56.30
680;DHT22;322;48.846;9.230;2023-04-06T08:11:21;6.30;55.10
680;DHT22;322;48.846;9.230;2023-04-06T08:13:48;6.50;56.60
680;DHT22;322;48.846;9.230;2023-04-06T08:16:17;6.60;54.00
680;DHT22;322;48.846;9.230;2023-04-06T08:18:43;6.80;55.30
680;DHT22;322;48.846;9.230;2023-04-06T08:21:10;6.90;55.60
680;DHT22;322;48.846;9.230;2023-04-06T08:23:37;7.10;54.50
680;DHT22;322;48.846;9.230;2023-04-06T08:26:04;7.30;54.30
680;DHT22;322;48.846;9.230;2023-04-06T08:28:31;7.50;52.30
680;DHT22;322;48.846;9.230;2023-04-06T08:31:03;7.70;52.00
680;DHT22;322;48.846;9.230;2023-04-06T08:33:31;7.90;52.40
680;DHT22;322;48.846;9.230;2023-04-06T08:36:07;8.10;51.10
680;DHT22;322;48.846;9.230;2023-04-06T08:38:34;8.30;50.00
680;DHT22;322;48.846;9.230;2023-04-06T08:41:07;8.40;50.20
680;DHT22;322;48.846;9.230;2023-04-06T08:43:38;8.70;49.30
680;DHT22;322;48.846;9.230;2023-04-06T08:46:08;8.70;47.10
680;DHT22;322;48.846;9.230;2023-04-06T08:48:38;8.80;47.10
680;DHT22;322;48.846;9.230;2023-04-06T08:51:05;9.10;48.00
680;DHT22;322;48.846;9.230;2023-04-06T08:53:32;9.20;44.00
680;DHT22;322;48.846;9.230;2023-04-06T08:55:59;9.20;45.90
680;DHT22;322;48.846;9.230;2023-04-06T08:58:28;9.40;44.60
680;DHT22;322;48.846;9.230;2023-04-06T09:00:57;9.60;45.40
680;DHT22;322;48.846;9.230;2023-04-06T09:03:26;9.90;44.50
680;DHT22;322;48.846;9.230;2023-04-06T09:05:55;10.10;40.70
680;DHT22;322;48.846;9.230;2023-04-06T09:08:22;10.10;40.60
680;DHT22;322;48.846;9.230;2023-04-06T09:10:49;10.30;41.50
680;DHT22;322;48.846;9.230;2023-04-06T09:13:17;10.50;40.20
680;DHT22;322;48.846;9.230;2023-04-06T09:15:44;10.70;39.60
680;DHT22;322;48.846;9.230;2023-04-06T09:18:11;10.70;41.40
680;DHT22;322;48.846;9.230;2023-04-06T09:20:38;11.10;37.70
680;DHT22;322;48.846;9.230;2023-04-06T09:23:17;11.40;39.10
680;DHT22;322;48.846;9.230;2023-04-06T09:25:44;11.80;38.00
680;DHT22;322;48.846;9.230;2023-04-06T09:28:11;12.30;35.30
680;DHT22;322;48.846;9.230;2023-04-06T09:30:47;12.30;35.80
680;DHT22;322;48.846;9.230;2023-04-06T09:33:22;12.50;37.40
680;DHT22;322;48.846;9.230;2023-04-06T09:35:50;12.80;38.10
680;DHT22;322;48.846;9.230;2023-04-06T09:38:18;13.20;35.90
680;DHT22;322;48.846;9.230;2023-04-06T09:40:49;13.50;36.90
680;DHT22;322;48.846;9.230;2023-04-06T09:43:24;13.60;33.00
680;DHT22;322;48.846;9.230;2023-04-06T09:45:52;14.00;32.40
680;DHT22;322;48.846;9.230;2023-04-06T09:48:20;14.30;32.10
680;DHT22;322;48.846;9.230;2023-04-06T09:50:49;14.60;32.10
680;DHT22;322;48.846;9.230;2023-04-06T09:53:19;14.70;29.70
680;DHT22;322;48.846;9.230;2023-04-06T09:55:50;14.50;30.90
680;DHT22;322;48.846;9.230;2023-04-06T09:58:19;14.50;32.20
680;DHT22;322;48.846;9.230;2023-04-06T10:00:56;14.90;29.70
680;DHT22;322;48.846;9.230;2023-04-06T10:03:29;15.40;31.40
680;DHT22;322;48.846;9.230;2023-04-06T10:06:01;15.50;31.40
680;DHT22;322;48.846;9.230;2023-04-06T10:08:33;15.70;30.00
680;DHT22;322;48.846;9.230;2023-04-06T10:11:02;15.80;30.70
680;DHT22;322;48.846;9.230;2023-04-06T10:13:29;16.00;30.50
680;DHT22;322;48.846;9.230;2023-04-06T10:15:56;15.90;28.10
680;DHT22;322;48.846;9.230;2023-04-06T10:18:23;16.20;29.40
680;DHT22;322;48.846;9.230;2023-04-06T10:20:54;16.50;27.30
680;DHT22;322;48.846;9.230;2023-04-06T10:23:26;16.60;27.80
680;DHT22;322;48.846;9.230;2023-04-06T10:25:59;16.30;27.30
680;DHT22;322;48.846;9.230;2023-04-06T10:28:30;15.60;26.40
680;DHT22;322;48.846;9.230;2023-04-06T10:30:59;15.40;29.40
680;DHT22;322;48.846;9.230;2023-04-06T10:33:27;15.10;27.90
680;DHT22;322;48.846;9.230;2023-04-06T10:35:54;15.20;28.70
680;DHT22;322;48.846;9.230;2023-04-06T10:38:32;15.20;28.60
680;DHT22;322;48.846;9.230;2023-04-06T10:41:05;15.40;27.80
680;DHT22;322;48.846;9.230;2023-04-06T10:43:33;16.20;27.80
680;DHT22;322;48.846;9.230;2023-04-06T10:46:02;16.90;28.50
680;DHT22;322;48.846;9.230;2023-04-06T10:48:37;17.50;26.10
680;DHT22;322;48.846;9.230;2023-04-06T10:51:09;18.00;28.00
680;DHT22;322;48.846;9.230;2023-04-06T10:53:36;18.10;27.50
680;DHT22;322;48.846;9.230;2023-04-06T10:56:07;18.60;26.50
680;DHT22;322;48.846;9.230;2023-04-06T10:58:35;19.10;26.00
680;DHT22;322;48.846;9.230;2023-04-06T11:01:02;19.00;25.90
680;DHT22;322;48.846;9.230;2023-04-06T11:03:29;18.90;27.00
680;DHT22;322;48.846;9.230;2023-04-06T11:05:57;19.10;25.90
680;DHT22;322;48.846;9.230;2023-04-06T11:08:29;19.30;26.60
680;DHT22;322;48.846;9.230;2023-04-06T11:11:08;19.50;25.20
680;DHT22;322;48.846;9.230;2023-04-06T11:13:40;19.80;26.90
680;DHT22;322;48.846;9.230;2023-04-06T11:16:12;19.60;23.10
680;DHT22;322;48.846;9.230;2023-04-06T11:18:50;19.40;25.10
680;DHT22;322;48.846;9.230;2023-04-06T11:21:17;19.60;23.00
680;DHT22;322;48.846;9.230;2023-04-06T11:23:44;19.70;25.10
680;DHT22;322;48.846;9.230;2023-04-06T11:26:13;19.70;24.20
680;DHT22;322;48.846;9.230;2023-04-06T11:28:41;19.40;22.80
680;DHT22;322;48.846;9.230;2023-04-06T11:31:09;19.10;22.10
680;DHT22;322;48.846;9.230;2023-04-06T11:33:36;19.00;23.70
680;DHT22;322;48.846;9.230;2023-04-06T11:36:04;19.20;24.10
680;DHT22;322;48.846;9.230;2023-04-06T11:38:31;19.00;24.80
680;DHT22;322;48.846;9.230;2023-04-06T11:40:58;19.40;24.40
680;DHT22;322;48.846;9.230;2023-04-06T11:43:30;19.70;24.90
680;DHT22;322;48.846;9.230;2023-04-06T11:46:01;19.30;23.40
680;DHT22;322;48.846;9.230;2023-04-06T11:48:28;19.20;25.60
680;DHT22;322;48.846;9.230;2023-04-06T11:50:56;19.90;23.00
680;DHT22;322;48.846;9.230;2023-04-06T11:53:24;20.60;23.20
680;DHT22;322;48.846;9.230;2023-04-06T11:55:51;20.80;23.60
680;DHT22;322;48.846;9.230;2023-04-06T11:58:18;20.90;23.30
680;DHT22;322;48.846;9.230;2023-04-06T12:00:46;20.90;20.90
680;DHT22;322;48.846;9.230;2023-04-06T12:03:13;21.40;21.20
680;DHT22;322;48.846;9.230;2023-04-06T12:05:40;22.00;20.50
680;DHT22;322;48.846;9.230;2023-04-06T12:08:07;22.70;21.10
680;DHT22;322;48.846;9.230;2023-04-06T12:10:34;22.70;20.50
680;DHT22;322;48.846;9.230;2023-04-06T12:13:01;22.70;22.30
680;DHT22;322;48.846;9.230;2023-04-06T12:15:27;23.30;18.90
680;DHT22;322;48.846;9.230;2023-04-06T12:17:56;22.90;19.30
680;DHT22;322;48.846;9.230;2023-04-06T12:20:23;21.80;19.00
680;DHT22;322;48.846;9.230;2023-04-06T12:22:50;21.00;19.70
680;DHT22;322;48.846;9.230;2023-04-06T12:25:17;20.30;21.00
680;DHT22;322;48.846;9.230;2023-04-06T12:27:43;20.50;23.20
680;DHT22;322;48.846;9.230;2023-04-06T12:30:11;21.00;21.10
680;DHT22;322;48.846;9.230;2023-04-06T12:32:38;21.10;21.50
680;DHT22;322;48.846;9.230;2023-04-06T12:35:07;21.10;22.30
680;DHT22;322;48.846;9.230;2023-04-06T12:37:35;21.60;22.90
680;DHT22;322;48.846;9.230;2023-04-06T12:40:02;22.00;22.50
680;DHT22;322;48.846;9.230;2023-04-06T12:42:29;22.90;22.50
680;DHT22;322;48.846;9.230;2023-04-06T12:44:56;22.70;20.50
680;DHT22;322;48.846;9.230;2023-04-06T12:47:23;22.10;19.90
680;DHT22;322;48.846;9.230;2023-04-06T12:49:51;21.60;19.50
680;DHT22;322;48.846;9.230;2023-04-06T12:52:20;21.30;19.90
680;DHT22;322;48.846;9.230;2023-04-06T12:54:47;19.80;21.80
680;DHT22;322;48.846;9.230;2023-04-06T12:57:14;18.20;22.70
680;DHT22;322;48.846;9.230;2023-04-06T12:59:43;17.60;22.80
680;DHT22;322;48.846;9.230;2023-04-06T13:02:10;18.40;23.50
680;DHT22;322;48.846;9.230;2023-04-06T13:04:37;20.20;21.50
680;DHT22;322;48.846;9.230;2023-04-06T13:07:04;19.90;21.80
680;DHT22;322;48.846;9.230;2023-04-06T13:09:32;20.40;23.00
680;DHT22;322;48.846;9.230;2023-04-06T13:11:59;21.40;20.30
680;DHT22;322;48.846;9.230;2023-04-06T13:14:26;20.50;22.10
680;DHT22;322;48.846;9.230;2023-04-06T13:16:53;19.90;22.10
680;DHT22;322;48.846;9.230;2023-04-06T13:19:20;19.50;22.80
680;DHT22;322;48.846;9.230;2023-04-06T13:21:47;17.60;22.80
680;DHT22;322;48.846;9.230;2023-04-06T13:24:14;16.40;23.40
680;DHT22;322;48.846;9.230;2023-04-06T13:26:42;16.30;25.80
680;DHT22;322;48.846;9.230;2023-04-06T13:29:09;17.30;23.30
680;DHT22;322;48.846;9.230;2023-04-06T13:31:36;18.10;23.30
680;DHT22;322;48.846;9.230;2023-04-06T13:34:03;19.00;22.30
680;DHT22;322;48.846;9.230;2023-04-06T13:36:30;19.40;22.00
680;DHT22;322;48.846;9.230;2023-04-06T13:38:58;19.80;21.70
680;DHT22;322;48.846;9.230;2023-04-06T13:41:25;19.30;22.00
680;DHT22;322;48.846;9.230;2023-04-06T13:43:53;19.30;24.00
680;DHT22;322;48.846;9.230;2023-04-06T13:46:21;20.10;23.20
680;DHT22;322;48.846;9.230;2023-04-06T13:48:49;20.20;20.20
680;DHT22;322;48.846;9.230;2023-04-06T13:51:16;20.60;21.60
680;DHT22;322;48.846;9.230;2023-04-06T13:53:43;19.80;21.50
680;DHT22;322;48.846;9.230;2023-04-06T13:56:10;19.60;20.80
680;DHT22;322;48.846;9.230;2023-04-06T13:58:36;19.00;21.00
680;DHT22;322;48.846;9.230;2023-04-06T14:01:06;18.80;23.00
680;DHT22;322;48.846;9.230;2023-04-06T14:03:35;17.80;22.20
680;DHT22;322;48.846;9.230;2023-04-06T14:06:09;17.40;22.80
680;DHT22;322;48.846;9.230;2023-04-06T14:08:36;17.40;22.50
680;DHT22;322;48.846;9.230;2023-04-06T14:11:03;17.40;23.60
680;DHT22;322;48.846;9.230;2023-04-06T14:13:30;17.60;25.20
680;DHT22;322;48.846;9.230;2023-04-06T14:15:57;17.80;24.10
680;DHT22;322;48.846;9.230;2023-04-06T14:18:25;17.90;23.20
680;DHT22;322;48.846;9.230;2023-04-06T14:20:56;17.90;25.00
680;DHT22;322;48.846;9.230;2023-04-06T14:23:24;18.10;23.00
680;DHT22;322;48.846;9.230;2023-04-06T14:25:52;17.90;25.70
680;DHT22;322;48.846;9.230;2023-04-06T14:28:26;17.70;23.30
680;DHT22;322;48.846;9.230;2023-04-06T14:30:53;17.00;25.90
680;DHT22;322;48.846;9.230;2023-04-06T14:33:20;17.20;27.00
680;DHT22;322;48.846;9.230;2023-04-06T14:35:48;17.60;26.50
680;DHT22;322;48.846;9.230;2023-04-06T14:38:15;19.10;24.40
680;DHT22;322;48.846;9.230;2023-04-06T14:40:42;20.30;24.70
680;DHT22;322;48.846;9.230;2023-04-06T14:43:08;21.20;23.60
680;DHT22;322;48.846;9.230;2023-04-06T14:45:35;21.70;21.40
680;DHT22;322;48.846;9.230;2023-04-06T14:48:04;21.80;23.30
680;DHT22;322;48.846;9.230;2023-04-06T14:50:33;22.20;23.10
680;DHT22;322;48.846;9.230;2023-04-06T14:53:01;22.20;21.00
680;DHT22;322;48.846;9.230;2023-04-06T14:55:28;21.80;22.30
680;DHT22;322;48.846;9.230;2023-04-06T14:57:55;21.10;23.00
680;DHT22;322;48.846;9.230;2023-04-06T15:00:22;19.50;21.40
680;DHT22;322;48.846;9.230;2023-04-06T15:02:49;18.80;22.00
680;DHT22;322;48.846;9.230;2023-04-06T15:05:16;19.00;23.20
680;DHT22;322;48.846;9.230;2023-04-06T15:07:42;19.30;25.30
680;DHT22;322;48.846;9.230;2023-04-06T15:10:11;19.20;23.70
680;DHT22;322;48.846;9.230;2023-04-06T15:12:38;19.50;24.00
680;DHT22;322;48.846;9.230;2023-04-06T15:15:05;19.90;23.20
680;DHT22;322;48.846;9.230;2023-04-06T15:17:32;20.20;23.00
680;DHT22;322;48.846;9.230;2023-04-06T15:19:59;20.40;22.30
680;DHT22;322;48.846;9.230;2023-04-06T15:22:26;20.30;22.90
680;DHT22;322;48.846;9.230;2023-04-06T15:24:53;20.10;23.50
680;DHT22;322;48.846;9.230;2023-04-06T15:27:21;19.40;23.00
680;DHT22;322;48.846;9.230;2023-04-06T15:29:48;18.10;22.70
680;DHT22;322;48.846;9.230;2023-04-06T15:32:15;17.10;22.60
680;DHT22;322;48.846;9.230;2023-04-06T15:34:42;16.20;24.20
680;DHT22;322;48.846;9.230;2023-04-06T15:37:08;15.70;25.20
680;DHT22;322;48.846;9.230;2023-04-06T15:39:35;15.40;24.90
680;DHT22;322;48.846;9.230;2023-04-06T15:42:02;15.30;26.60
680;DHT22;322;48.846;9.230;2023-04-06T15:44:31;15.40;27.30
680;DHT22;322;48.846;9.230;2023-04-06T15:46:57;15.70;27.70
680;DHT22;322;48.846;9.230;2023-04-06T15:49:24;15.90;27.30
680;DHT22;322;48.846;9.230;2023-04-06T15:51:51;16.20;28.20
680;DHT22;322;48.846;9.230;2023-04-06T15:54:18;16.20;27.40
680;DHT22;322;48.846;9.230;2023-04-06T15:56:46;16.30;27.50
680;DHT22;322;48.846;9.230;2023-04-06T15:59:12;16.30;25.80
680;DHT22;322;48.846;9.230;2023-04-06T16:01:41;16.30;27.80
680;DHT22;322;48.846;9.230;2023-04-06T16:04:08;16.30;25.70
680;DHT22;322;48.846;9.230;2023-04-06T16:06:36;16.20;25.20
680;DHT22;322;48.846;9.230;2023-04-06T16:09:02;16.20;27.90
680;DHT22;322;48.846;9.230;2023-04-06T16:11:29;16.10;27.00
680;DHT22;322;48.846;9.230;2023-04-06T16:13:57;16.00;27.60
680;DHT22;322;48.846;9.230;2023-04-06T16:16:23;15.90;27.60
680;DHT22;322;48.846;9.230;2023-04-06T16:18:51;15.40;26.90
680;DHT22;322;48.846;9.230;2023-04-06T16:21:18;15.00;26.60
680;DHT22;322;48.846;9.230;2023-04-06T16:23:46;14.70;27.90
680;DHT22;322;48.846;9.230;2023-04-06T16:26:13;14.50;28.30
680;DHT22;322;48.846;9.230;2023-04-06T16:28:41;14.30;28.60
680;DHT22;322;48.846;9.230;2023-04-06T16:31:16;14.20;27.50
680;DHT22;322;48.846;9.230;2023-04-06T16:33:43;14.00;27.90
680;DHT22;322;48.846;9.230;2023-04-06T16:36:11;13.90;27.50
680;DHT22;322;48.846;9.230;2023-04-06T16:38:38;13.70;27.80